KEWN/EWN METAR and TAF weather

Enter ICAO airport designator
Station Type Date Time Source
KEWN METAR 2018/12/19 09:23 UTC NOAA

KEWN 190923Z AUTO 00000KT 3/4SM BR VV002 00/00 A3022 RMK AO2 T00000000


Station Type Date Time Source
KEWN Decoded METAR 2018/12/19 09:23 UTC NOAA

New Bern, Craven County Regional Airport, NC, United States (KEWN) 35-04-03N 077-02-50W 3M
Dec 19, 2018 - 04:23 AM EST / 2018.12.19 0923 UTC
Wind: Calm:0
Visibility: 3/4 mile(s):0
Sky conditions: obscured
Weather: mist
Temperature: 32.0 F (0.0 C)
Dew Point: 32.0 F (0.0 C)
Relative Humidity: 100%
Pressure (altimeter): 30.22 in. Hg (1023 hPa)
ob: KEWN 190923Z AUTO 00000KT 3/4SM BR VV002 00/00 A3022 RMK AO2 T00000000
cycle: 9

Station Type Date Time Source
KEWN TAF 2018/12/19 09:24 UTC NOAA

TAF
AMD KEWN 190923Z 1909/2006 VRB03KT P6SM FEW250
TEMPO 1909/1911 1/2SM FG BKN003
FM200000 08004KT P6SM SCT050 BKN150


Example: see airport list